createdAt,value
2023-03-29T00:00:00.556Z,15.8
2023-03-29T00:01:00.919Z,15.8
2023-03-29T00:02:00.817Z,15.8
2023-03-29T00:03:00.663Z,16.0
2023-03-29T00:04:02.647Z,16.0
2023-03-29T00:05:00.845Z,16.0
2023-03-29T00:06:01.493Z,16.0
2023-03-29T00:07:00.938Z,16.0
2023-03-29T00:08:01.043Z,14.7
2023-03-29T00:09:00.629Z,14.7
2023-03-29T00:10:02.331Z,14.7
2023-03-29T00:11:00.862Z,14.7
2023-03-29T00:12:00.744Z,14.7
2023-03-29T00:13:01.434Z,16.1
2023-03-29T00:14:00.701Z,16.1
2023-03-29T00:15:00.665Z,16.1
2023-03-29T00:16:00.756Z,16.1
2023-03-29T00:17:00.654Z,16.1
2023-03-29T00:18:00.706Z,14.4
2023-03-29T00:19:00.790Z,14.4
2023-03-29T00:20:00.636Z,14.4
2023-03-29T00:21:01.021Z,14.4
2023-03-29T00:22:01.959Z,14.4
2023-03-29T00:23:00.594Z,13.9
2023-03-29T00:24:00.632Z,13.9
2023-03-29T00:25:00.597Z,13.9
2023-03-29T00:26:01.308Z,13.9
2023-03-29T00:27:00.578Z,13.9
2023-03-29T00:28:00.559Z,14.0
2023-03-29T00:29:00.546Z,14.0
2023-03-29T00:30:00.739Z,14.0
2023-03-29T00:31:10.310Z,14.0
2023-03-29T00:32:00.543Z,14.0
2023-03-29T00:33:00.502Z,13.9
2023-03-29T00:34:00.487Z,13.9
2023-03-29T00:35:00.861Z,13.9
2023-03-29T00:36:00.635Z,13.9
2023-03-29T00:37:01.090Z,13.9
2023-03-29T00:38:00.480Z,14.3
2023-03-29T00:39:00.490Z,14.3
2023-03-29T00:40:00.675Z,14.3
2023-03-29T00:41:01.766Z,14.3
2023-03-29T00:42:00.626Z,14.3
2023-03-29T00:43:00.461Z,13.6
2023-03-29T00:44:03.339Z,13.6
2023-03-29T00:45:11.402Z,13.6
2023-03-29T00:46:00.479Z,13.6
2023-03-29T00:47:00.462Z,13.6
2023-03-29T00:48:04.488Z,14.1
2023-03-29T00:49:06.106Z,14.1
2023-03-29T00:50:07.309Z,14.1
2023-03-29T00:51:05.437Z,14.1
2023-03-29T00:52:00.434Z,14.1
2023-03-29T00:53:08.744Z,14.0
2023-03-29T00:54:04.730Z,14.0
2023-03-29T00:55:04.842Z,14.0
2023-03-29T00:56:06.942Z,14.0
2023-03-29T00:57:00.517Z,14.0
2023-03-29T00:58:02.829Z,14.0
2023-03-29T00:59:06.981Z,14.0
2023-03-29T01:00:03.552Z,14.0
2023-03-29T01:01:06.121Z,14.0
2023-03-29T01:02:03.093Z,13.6
2023-03-29T01:03:07.104Z,13.6
2023-03-29T01:04:06.767Z,13.6
2023-03-29T01:05:06.008Z,13.6
2023-03-29T01:06:05.253Z,13.6
2023-03-29T01:07:07.352Z,13.3
2023-03-29T01:08:05.201Z,13.3
2023-03-29T01:09:05.157Z,13.3
2023-03-29T01:10:09.902Z,13.3
2023-03-29T01:11:09.694Z,13.3
2023-03-29T01:12:06.927Z,13.3
2023-03-29T01:13:07.587Z,13.3
2023-03-29T01:14:05.689Z,13.3
2023-03-29T01:15:04.480Z,13.3
2023-03-29T01:16:02.170Z,13.3
2023-03-29T01:17:00.751Z,14.3
2023-03-29T01:18:00.728Z,14.3
2023-03-29T01:19:00.702Z,14.3
2023-03-29T01:20:08.848Z,14.3
2023-03-29T01:21:08.796Z,14.3
2023-03-29T01:22:17.842Z,14.8
2023-03-29T01:23:13.805Z,14.8
2023-03-29T01:24:19.435Z,14.8
2023-03-29T01:25:07.215Z,14.8
2023-03-29T01:26:11.582Z,14.8
2023-03-29T01:27:15.942Z,32.3
2023-03-29T01:28:04.765Z,32.3
2023-03-29T01:29:08.782Z,32.3
2023-03-29T01:30:06.890Z,32.3
2023-03-29T01:31:06.226Z,32.3
2023-03-29T01:32:05.207Z,14.2
2023-03-29T01:33:09.119Z,14.2
2023-03-29T01:34:06.465Z,14.2
2023-03-29T01:35:04.712Z,14.2
2023-03-29T01:36:05.866Z,14.2
2023-03-29T01:37:13.946Z,14.0
2023-03-29T01:38:08.006Z,14.0
2023-03-29T01:39:03.391Z,14.0
2023-03-29T01:40:03.862Z,14.0
2023-03-29T01:41:01.188Z,14.0
2023-03-29T01:42:15.643Z,13.7
2023-03-29T01:43:10.520Z,13.7
2023-03-29T01:44:06.857Z,13.7
2023-03-29T01:45:11.550Z,13.7
2023-03-29T01:46:07.019Z,13.7
2023-03-29T01:47:12.046Z,14.4
2023-03-29T01:48:09.445Z,14.4
2023-03-29T01:49:06.758Z,14.4
2023-03-29T01:50:12.006Z,14.4
2023-03-29T01:51:04.970Z,14.4
2023-03-29T01:52:08.466Z,13.9
2023-03-29T01:53:06.862Z,13.9
2023-03-29T01:54:06.416Z,13.9
2023-03-29T01:55:07.264Z,13.9
2023-03-29T01:56:07.463Z,13.9
2023-03-29T01:57:02.759Z,13.3
2023-03-29T01:58:03.222Z,13.3
2023-03-29T01:59:04.734Z,13.3
2023-03-29T02:00:02.063Z,13.3
2023-03-29T02:01:03.026Z,13.3
2023-03-29T02:02:04.631Z,13.5
2023-03-29T02:03:06.669Z,13.5
2023-03-29T02:04:03.798Z,13.5
2023-03-29T02:05:01.294Z,13.5
2023-03-29T02:06:02.004Z,13.5
2023-03-29T02:07:03.718Z,12.7
2023-03-29T02:08:04.477Z,12.7
2023-03-29T02:09:00.847Z,12.7
2023-03-29T02:10:01.108Z,12.7
2023-03-29T02:11:00.813Z,12.7
2023-03-29T02:12:01.738Z,13.2
2023-03-29T02:13:00.555Z,13.2
2023-03-29T02:14:00.540Z,13.2
2023-03-29T02:15:00.576Z,13.2
2023-03-29T02:16:02.511Z,13.2
2023-03-29T02:17:19.106Z,12.0
2023-03-29T02:18:00.561Z,12.0
2023-03-29T02:19:01.623Z,12.0
2023-03-29T02:20:08.165Z,12.0
2023-03-29T02:21:01.439Z,12.0
2023-03-29T02:22:07.816Z,12.5
2023-03-29T02:23:06.194Z,12.5
2023-03-29T02:24:07.049Z,12.5
2023-03-29T02:25:02.879Z,12.5
2023-03-29T02:26:02.794Z,12.5
2023-03-29T02:27:00.565Z,11.9
2023-03-29T02:28:00.652Z,11.9
2023-03-29T02:29:00.818Z,11.9
2023-03-29T02:30:00.692Z,11.9
2023-03-29T02:31:10.802Z,11.9
2023-03-29T02:32:07.470Z,11.5
2023-03-29T02:33:11.914Z,11.5
2023-03-29T02:34:10.229Z,11.5
2023-03-29T02:35:05.925Z,11.5
2023-03-29T02:36:08.943Z,11.5
2023-03-29T02:37:06.817Z,11.2
2023-03-29T02:38:03.972Z,11.2
2023-03-29T02:39:03.305Z,11.2
2023-03-29T02:40:02.690Z,11.2
2023-03-29T02:41:01.532Z,11.2
2023-03-29T02:42:02.161Z,11.5
2023-03-29T02:43:02.069Z,11.5
2023-03-29T02:44:03.225Z,11.5
2023-03-29T02:45:01.457Z,11.5
2023-03-29T02:46:01.975Z,11.5
2023-03-29T02:47:14.944Z,11.1
2023-03-29T02:48:04.016Z,11.1
2023-03-29T02:49:00.702Z,11.1
2023-03-29T02:50:00.719Z,11.1
2023-03-29T02:51:07.644Z,11.1
2023-03-29T02:52:06.835Z,11.1
2023-03-29T02:53:06.237Z,11.1
2023-03-29T02:54:05.726Z,11.1
2023-03-29T02:55:02.357Z,11.1
2023-03-29T02:56:00.521Z,11.1
2023-03-29T02:57:04.361Z,10.8
2023-03-29T02:58:02.561Z,10.8
2023-03-29T02:59:00.470Z,10.8
2023-03-29T03:00:00.626Z,10.8
2023-03-29T03:01:01.860Z,10.8
2023-03-29T03:02:01.070Z,11.1
2023-03-29T03:03:02.002Z,11.1
2023-03-29T03:04:00.481Z,11.1
2023-03-29T03:05:00.498Z,11.1
2023-03-29T03:06:00.473Z,11.1
2023-03-29T03:07:00.946Z,11.0
2023-03-29T03:08:00.575Z,11.0
2023-03-29T03:09:00.477Z,11.0
2023-03-29T03:10:00.509Z,11.0
2023-03-29T03:11:00.814Z,11.0
2023-03-29T03:12:00.448Z,11.0
2023-03-29T03:13:00.909Z,11.0
2023-03-29T03:14:00.671Z,11.0
2023-03-29T03:15:00.460Z,11.0
2023-03-29T03:16:00.551Z,11.0
2023-03-29T03:17:03.121Z,11.0
2023-03-29T03:18:02.281Z,11.0
2023-03-29T03:19:00.479Z,11.0
2023-03-29T03:20:00.455Z,11.0
2023-03-29T03:21:00.694Z,11.0
2023-03-29T03:22:00.591Z,11.4
2023-03-29T03:23:01.150Z,11.4
2023-03-29T03:24:00.508Z,11.4
2023-03-29T03:25:00.499Z,11.4
2023-03-29T03:26:00.446Z,11.4
2023-03-29T03:27:00.482Z,11.4
2023-03-29T03:28:00.848Z,11.4
2023-03-29T03:29:00.514Z,11.4
2023-03-29T03:30:00.473Z,11.4
2023-03-29T03:31:00.755Z,11.4
2023-03-29T03:32:00.528Z,11.3
2023-03-29T03:33:00.610Z,11.3
2023-03-29T03:34:00.446Z,11.3
2023-03-29T03:35:00.979Z,11.3
2023-03-29T03:36:00.432Z,11.3
2023-03-29T03:37:00.433Z,11.0
2023-03-29T03:38:00.453Z,11.0
2023-03-29T03:39:00.901Z,11.0
2023-03-29T03:40:00.450Z,11.0
2023-03-29T03:41:01.264Z,11.0
2023-03-29T03:42:00.425Z,11.3
2023-03-29T03:43:00.441Z,11.3
2023-03-29T03:44:00.459Z,11.3
2023-03-29T03:45:00.419Z,11.3
2023-03-29T03:46:00.615Z,11.3
2023-03-29T03:47:00.442Z,10.2
2023-03-29T03:48:00.463Z,10.2
2023-03-29T03:49:00.565Z,10.2
2023-03-29T03:50:00.425Z,10.2
2023-03-29T03:51:00.868Z,10.2
2023-03-29T03:52:00.412Z,10.4
2023-03-29T03:53:00.434Z,10.4
2023-03-29T03:54:00.386Z,10.4
2023-03-29T03:55:00.419Z,10.4
2023-03-29T03:56:00.465Z,10.4
2023-03-29T03:57:00.430Z,10.4
2023-03-29T03:58:00.804Z,10.4
2023-03-29T03:59:00.394Z,10.4
2023-03-29T04:00:00.373Z,10.4
2023-03-29T04:01:00.871Z,10.4
2023-03-29T04:02:00.536Z,10.3
2023-03-29T04:03:00.408Z,10.3
2023-03-29T04:04:00.461Z,10.3
2023-03-29T04:05:00.384Z,10.3
2023-03-29T04:06:01.253Z,10.3
2023-03-29T04:07:00.900Z,10.2
2023-03-29T04:08:00.351Z,10.2
2023-03-29T04:09:00.366Z,10.2
2023-03-29T04:10:00.398Z,10.2
2023-03-29T04:11:00.631Z,10.2
2023-03-29T04:12:00.657Z,9.7
2023-03-29T04:13:01.180Z,9.7
2023-03-29T04:14:00.465Z,9.7
2023-03-29T04:15:01.223Z,9.7
2023-03-29T04:16:01.828Z,9.7
2023-03-29T04:17:00.384Z,9.1
2023-03-29T04:18:00.421Z,9.1
2023-03-29T04:19:00.387Z,9.1
2023-03-29T04:20:00.389Z,9.1
2023-03-29T04:21:00.597Z,9.1
2023-03-29T04:22:00.377Z,9.3
2023-03-29T04:23:00.483Z,9.3
2023-03-29T04:24:00.430Z,9.3
2023-03-29T04:25:00.499Z,9.3
2023-03-29T04:26:00.594Z,9.3
2023-03-29T04:27:00.516Z,9.4
2023-03-29T04:28:00.557Z,9.4
2023-03-29T04:29:00.560Z,9.4
2023-03-29T04:30:00.600Z,9.4
2023-03-29T04:31:01.039Z,9.4
2023-03-29T04:32:00.720Z,9.2
2023-03-29T04:33:00.647Z,9.2
2023-03-29T04:34:00.721Z,9.2
2023-03-29T04:35:00.700Z,9.2
2023-03-29T04:36:00.720Z,9.2
2023-03-29T04:37:00.622Z,9.1
2023-03-29T04:38:00.672Z,9.1
2023-03-29T04:39:00.629Z,9.1
2023-03-29T04:40:07.488Z,9.1
2023-03-29T04:41:02.550Z,9.1
2023-03-29T04:42:00.571Z,8.6
2023-03-29T04:43:01.036Z,8.6
2023-03-29T04:44:00.585Z,8.6
2023-03-29T04:45:00.751Z,8.6
2023-03-29T04:46:00.858Z,8.6
2023-03-29T04:47:00.603Z,8.6
2023-03-29T04:48:00.574Z,8.6
2023-03-29T04:49:00.766Z,8.6
2023-03-29T04:50:01.336Z,8.6
2023-03-29T04:51:00.953Z,8.6
2023-03-29T04:52:00.569Z,9.3
2023-03-29T04:53:00.561Z,9.3
2023-03-29T04:54:00.571Z,9.3
2023-03-29T04:55:01.272Z,9.3
2023-03-29T04:56:00.579Z,9.3
2023-03-29T04:57:00.635Z,8.9
2023-03-29T04:58:00.689Z,8.9
2023-03-29T04:59:00.565Z,8.9
2023-03-29T05:00:00.742Z,8.9
2023-03-29T05:01:00.646Z,8.9
2023-03-29T05:02:00.666Z,9.0
2023-03-29T05:03:00.607Z,9.0
2023-03-29T05:04:00.672Z,9.0
2023-03-29T05:05:00.565Z,9.0
2023-03-29T05:06:03.505Z,9.0
2023-03-29T05:07:00.601Z,9.2
2023-03-29T05:08:00.587Z,9.2
2023-03-29T05:09:00.562Z,9.2
2023-03-29T05:10:00.602Z,9.2
2023-03-29T05:11:01.302Z,9.2
2023-03-29T05:12:00.890Z,8.4
2023-03-29T05:13:01.035Z,8.4
2023-03-29T05:14:00.579Z,8.4
2023-03-29T05:15:00.558Z,8.4
2023-03-29T05:16:00.955Z,8.4
2023-03-29T05:17:00.598Z,8.3
2023-03-29T05:18:00.798Z,8.3
2023-03-29T05:19:00.722Z,8.3
2023-03-29T05:20:00.923Z,8.3
2023-03-29T05:21:00.998Z,8.3
2023-03-29T05:22:00.766Z,8.8
2023-03-29T05:23:00.562Z,8.8
2023-03-29T05:24:00.843Z,8.8
2023-03-29T05:25:00.644Z,8.8
2023-03-29T05:26:00.589Z,8.8
2023-03-29T05:27:00.602Z,8.6
2023-03-29T05:28:00.587Z,8.6
2023-03-29T05:29:00.590Z,8.6
2023-03-29T05:30:00.793Z,8.6
2023-03-29T05:31:03.015Z,8.4
2023-03-29T05:32:00.651Z,8.4
2023-03-29T05:33:01.351Z,8.4
2023-03-29T05:34:00.557Z,8.4
2023-03-29T05:35:00.554Z,8.4
2023-03-29T05:36:02.367Z,8.9
2023-03-29T05:37:00.620Z,8.9
2023-03-29T05:38:01.314Z,8.9
2023-03-29T05:39:00.559Z,8.9
2023-03-29T05:40:05.658Z,8.9
2023-03-29T05:41:00.812Z,8.9
2023-03-29T05:42:02.558Z,7.8
2023-03-29T05:43:00.612Z,7.8
2023-03-29T05:44:00.593Z,7.8
2023-03-29T05:45:00.519Z,7.8
2023-03-29T05:46:00.671Z,7.7
2023-03-29T05:47:00.580Z,7.7
2023-03-29T05:48:00.616Z,7.7
2023-03-29T05:49:00.670Z,7.7
2023-03-29T05:50:00.548Z,7.7
2023-03-29T05:51:01.399Z,8.1
2023-03-29T05:52:00.606Z,8.1
2023-03-29T05:53:00.549Z,8.1
2023-03-29T05:54:00.621Z,8.1
2023-03-29T05:55:01.049Z,8.1
2023-03-29T05:56:00.704Z,8.2
2023-03-29T05:57:00.600Z,8.2
2023-03-29T05:58:00.569Z,8.2
2023-03-29T05:59:00.532Z,8.2
2023-03-29T06:00:00.923Z,8.2
2023-03-29T06:01:00.905Z,8.3
2023-03-29T06:02:00.720Z,8.3
2023-03-29T06:03:10.063Z,8.3
2023-03-29T06:04:00.609Z,8.3
2023-03-29T06:05:00.671Z,8.3
2023-03-29T06:06:01.754Z,9.3
2023-03-29T06:07:00.635Z,9.3
2023-03-29T06:08:00.808Z,9.3
2023-03-29T06:09:00.558Z,9.3
2023-03-29T06:10:00.844Z,9.3
2023-03-29T06:11:05.184Z,8.1
2023-03-29T06:12:00.522Z,8.1
2023-03-29T06:13:00.564Z,8.1
2023-03-29T06:14:00.540Z,8.1
2023-03-29T06:15:00.525Z,8.1
2023-03-29T06:16:00.563Z,8.5
2023-03-29T06:17:00.556Z,8.5
2023-03-29T06:18:01.092Z,8.5
2023-03-29T06:19:00.670Z,8.5
2023-03-29T06:20:01.157Z,8.5
2023-03-29T06:21:01.130Z,8.1
2023-03-29T06:22:00.521Z,8.1
2023-03-29T06:23:00.947Z,8.1
2023-03-29T06:24:00.548Z,8.1
2023-03-29T06:25:00.522Z,8.1
2023-03-29T06:26:00.536Z,8.9
2023-03-29T06:27:00.577Z,8.9
2023-03-29T06:28:00.518Z,8.9
2023-03-29T06:29:00.527Z,8.9
2023-03-29T06:30:00.569Z,8.9
2023-03-29T06:31:00.956Z,8.5
2023-03-29T06:32:00.514Z,8.5
2023-03-29T06:33:00.580Z,8.5
2023-03-29T06:34:01.376Z,8.5
2023-03-29T06:35:00.590Z,8.5
2023-03-29T06:36:00.534Z,9.1
2023-03-29T06:37:00.553Z,9.1
2023-03-29T06:38:00.724Z,9.1
2023-03-29T06:39:00.558Z,9.1
2023-03-29T06:40:00.799Z,9.1
2023-03-29T06:41:05.775Z,8.2
2023-03-29T06:42:05.229Z,8.2
2023-03-29T06:43:00.662Z,8.2
2023-03-29T06:44:00.531Z,8.2
2023-03-29T06:45:00.507Z,8.2
2023-03-29T06:46:00.670Z,9.4
2023-03-29T06:47:00.950Z,9.4
2023-03-29T06:48:00.986Z,9.4
2023-03-29T06:49:00.498Z,9.4
2023-03-29T06:50:00.616Z,9.4
2023-03-29T06:51:01.076Z,8.6
2023-03-29T06:52:00.561Z,8.6
2023-03-29T06:53:01.382Z,8.6
2023-03-29T06:54:00.522Z,8.6
2023-03-29T06:55:00.527Z,8.6
2023-03-29T06:56:00.499Z,8.6
2023-03-29T06:57:01.333Z,8.6
2023-03-29T06:58:02.646Z,8.6
2023-03-29T06:59:00.523Z,8.6
2023-03-29T07:00:00.577Z,8.6
2023-03-29T07:01:01.262Z,8.7
2023-03-29T07:02:00.579Z,8.7
2023-03-29T07:03:05.875Z,8.7
2023-03-29T07:04:00.525Z,8.7
2023-03-29T07:05:00.524Z,8.7
2023-03-29T07:06:02.481Z,8.2
2023-03-29T07:07:00.509Z,8.2
2023-03-29T07:08:00.940Z,8.2
2023-03-29T07:09:00.557Z,8.2
2023-03-29T07:10:00.541Z,8.2
2023-03-29T07:11:00.674Z,8.4
2023-03-29T07:12:00.538Z,8.4
2023-03-29T07:13:00.628Z,8.4
2023-03-29T07:14:00.819Z,8.4
2023-03-29T07:15:00.515Z,8.4
2023-03-29T07:16:00.522Z,7.8
2023-03-29T07:17:00.501Z,7.8
2023-03-29T07:18:00.935Z,7.8
2023-03-29T07:19:00.516Z,7.8
2023-03-29T07:20:00.561Z,7.8
2023-03-29T07:21:00.840Z,8.3
2023-03-29T07:22:00.511Z,8.3
2023-03-29T07:23:00.547Z,8.3
2023-03-29T07:24:00.519Z,8.3
2023-03-29T07:25:00.492Z,8.3
2023-03-29T07:26:01.089Z,7.1
2023-03-29T07:27:04.474Z,7.1
2023-03-29T07:28:00.592Z,7.1
2023-03-29T07:29:00.512Z,7.1
2023-03-29T07:30:00.784Z,7.1
2023-03-29T07:31:02.080Z,8.3
2023-03-29T07:32:00.521Z,8.3
2023-03-29T07:33:00.798Z,8.3
2023-03-29T07:34:00.507Z,8.3
2023-03-29T07:35:00.950Z,8.3
2023-03-29T07:36:00.551Z,7.2
2023-03-29T07:37:00.528Z,7.2
2023-03-29T07:38:00.537Z,7.2
2023-03-29T07:39:00.520Z,7.2
2023-03-29T07:40:00.638Z,7.2
2023-03-29T07:41:02.983Z,6.8
2023-03-29T07:42:00.515Z,6.8
2023-03-29T07:43:00.618Z,6.8
2023-03-29T07:44:03.318Z,6.8
2023-03-29T07:45:00.517Z,6.8
2023-03-29T07:46:01.858Z,6.9
2023-03-29T07:47:00.923Z,6.9
2023-03-29T07:48:01.612Z,6.9
2023-03-29T07:49:01.639Z,6.9
2023-03-29T07:50:00.932Z,6.9
2023-03-29T07:51:00.631Z,6.3
2023-03-29T07:52:00.496Z,6.3
2023-03-29T07:53:00.673Z,6.3
2023-03-29T07:54:00.522Z,6.3
2023-03-29T07:55:00.568Z,6.3
2023-03-29T07:56:00.500Z,6.2
2023-03-29T07:57:00.533Z,6.2
2023-03-29T07:58:00.544Z,6.2
2023-03-29T07:59:00.512Z,6.2
2023-03-29T08:00:00.970Z,6.2
2023-03-29T08:01:01.143Z,8.2
2023-03-29T08:02:00.496Z,8.2
2023-03-29T08:03:00.549Z,8.2
2023-03-29T08:04:00.671Z,8.2
2023-03-29T08:05:00.595Z,8.2
2023-03-29T08:06:01.040Z,6.4
2023-03-29T08:07:00.504Z,6.4
2023-03-29T08:08:00.527Z,6.4
2023-03-29T08:09:00.535Z,6.4
2023-03-29T08:10:00.625Z,6.4
2023-03-29T08:11:00.816Z,6.2
2023-03-29T08:12:00.534Z,6.2
2023-03-29T08:13:03.437Z,6.2
2023-03-29T08:14:00.502Z,6.2
2023-03-29T08:15:01.017Z,6.2
2023-03-29T08:16:00.517Z,6.2
2023-03-29T08:17:00.569Z,6.2
2023-03-29T08:18:00.553Z,6.2
2023-03-29T08:19:00.528Z,6.2
2023-03-29T08:20:01.068Z,6.2
2023-03-29T08:21:00.859Z,6.2
2023-03-29T08:22:00.580Z,6.2
2023-03-29T08:23:00.713Z,6.2
2023-03-29T08:24:00.596Z,6.2
2023-03-29T08:25:00.900Z,6.2
2023-03-29T08:26:00.670Z,5.5
2023-03-29T08:27:00.512Z,5.5
2023-03-29T08:28:00.507Z,5.5
2023-03-29T08:29:00.808Z,5.5
2023-03-29T08:30:00.547Z,5.5
2023-03-29T08:31:00.841Z,5.6
2023-03-29T08:32:00.534Z,5.6
2023-03-29T08:33:00.596Z,5.6
2023-03-29T08:34:00.528Z,5.6
2023-03-29T08:35:00.557Z,5.6
2023-03-29T08:36:00.613Z,5.4
2023-03-29T08:37:00.963Z,5.4
2023-03-29T08:38:00.539Z,5.4
2023-03-29T08:39:00.532Z,5.4
2023-03-29T08:40:01.421Z,5.4
2023-03-29T08:41:00.845Z,5.1
2023-03-29T08:42:20.445Z,5.1
2023-03-29T08:43:08.477Z,5.1
2023-03-29T08:44:10.684Z,5.1
2023-03-29T08:45:08.053Z,5.1
2023-03-29T08:46:06.655Z,5.3
2023-03-29T08:47:15.128Z,5.3
2023-03-29T08:48:20.440Z,5.3
2023-03-29T08:49:04.257Z,5.3
2023-03-29T08:50:00.676Z,5.3
2023-03-29T08:51:11.194Z,5.5
2023-03-29T08:52:07.711Z,5.5
2023-03-29T08:53:05.265Z,5.5
2023-03-29T08:54:14.154Z,5.5
2023-03-29T08:55:04.490Z,5.5
2023-03-29T08:56:06.287Z,5.3
2023-03-29T08:57:09.304Z,5.3
2023-03-29T08:58:04.358Z,5.3
2023-03-29T08:59:01.161Z,5.3
2023-03-29T09:00:02.583Z,5.3
2023-03-29T09:01:03.824Z,5.4
2023-03-29T09:02:03.753Z,5.4
2023-03-29T09:03:00.949Z,5.4
2023-03-29T09:04:01.731Z,5.4
2023-03-29T09:05:12.537Z,5.4
2023-03-29T09:06:07.766Z,5.6
2023-03-29T09:07:02.713Z,5.6
2023-03-29T09:08:00.626Z,5.6
2023-03-29T09:09:00.554Z,5.6
2023-03-29T09:10:00.684Z,5.6
2023-03-29T09:11:12.584Z,5.2
2023-03-29T09:12:10.478Z,5.2
2023-03-29T09:13:19.644Z,5.2
2023-03-29T09:14:17.803Z,5.2
2023-03-29T09:15:10.484Z,5.2
2023-03-29T09:16:06.201Z,5.1
2023-03-29T09:17:11.470Z,5.1
2023-03-29T09:18:09.593Z,5.1
2023-03-29T09:19:15.205Z,5.1
2023-03-29T09:20:16.825Z,5.1
2023-03-29T09:21:04.778Z,5.0
2023-03-29T09:22:13.721Z,5.0
2023-03-29T09:23:14.127Z,5.0
2023-03-29T09:24:12.153Z,5.0
2023-03-29T09:25:09.631Z,5.0
2023-03-29T09:26:11.500Z,5.4
2023-03-29T09:27:07.229Z,5.4
2023-03-29T09:28:03.734Z,5.4
2023-03-29T09:29:15.534Z,5.4
2023-03-29T09:30:16.226Z,5.4
2023-03-29T09:31:18.057Z,5.2
2023-03-29T09:32:04.350Z,5.2
2023-03-29T09:33:10.683Z,5.2
2023-03-29T09:34:09.087Z,5.2
2023-03-29T09:35:10.466Z,5.2
2023-03-29T09:36:07.148Z,5.1
2023-03-29T09:37:06.049Z,5.1
2023-03-29T09:38:02.077Z,5.1
2023-03-29T09:39:02.875Z,5.1
2023-03-29T09:40:05.882Z,5.1
2023-03-29T09:41:11.937Z,5.4
2023-03-29T09:42:04.123Z,5.4
2023-03-29T09:43:03.650Z,5.4
2023-03-29T09:44:06.672Z,5.4
2023-03-29T09:45:03.818Z,5.4
2023-03-29T09:46:05.258Z,5.9
2023-03-29T09:47:07.356Z,5.9
2023-03-29T09:48:09.508Z,5.9
2023-03-29T09:49:05.293Z,5.9
2023-03-29T09:50:16.840Z,5.9
2023-03-29T09:51:01.627Z,5.7
2023-03-29T09:52:05.898Z,5.7
2023-03-29T09:53:00.733Z,5.7
2023-03-29T09:54:00.580Z,5.7
2023-03-29T09:55:02.645Z,5.7
2023-03-29T09:56:00.987Z,5.9
2023-03-29T09:57:00.541Z,5.9
2023-03-29T09:58:09.182Z,5.9
2023-03-29T09:59:00.474Z,5.9
2023-03-29T10:00:02.090Z,5.9
2023-03-29T10:01:04.958Z,5.9
2023-03-29T10:02:10.245Z,5.9
2023-03-29T10:03:00.732Z,5.9
2023-03-29T10:04:00.490Z,5.9
2023-03-29T10:05:04.093Z,5.9
2023-03-29T10:06:02.813Z,5.6
2023-03-29T10:07:00.532Z,5.6
2023-03-29T10:08:00.474Z,5.6
2023-03-29T10:09:00.776Z,5.6
2023-03-29T10:10:00.566Z,5.6
2023-03-29T10:11:06.514Z,5.8
2023-03-29T10:12:05.410Z,5.8
2023-03-29T10:13:04.554Z,5.8
2023-03-29T10:14:12.913Z,5.8
2023-03-29T10:15:00.531Z,5.8
2023-03-29T10:16:03.787Z,6.5
2023-03-29T10:17:04.760Z,6.5
2023-03-29T10:18:05.805Z,6.5
2023-03-29T10:19:17.829Z,6.5
2023-03-29T10:20:04.176Z,6.5
2023-03-29T10:21:03.369Z,6.2
2023-03-29T10:22:03.585Z,6.2
2023-03-29T10:23:00.680Z,6.2
2023-03-29T10:24:00.474Z,6.2
2023-03-29T10:25:00.473Z,6.2
2023-03-29T10:26:03.179Z,5.9
2023-03-29T10:27:05.578Z,5.9
2023-03-29T10:28:07.211Z,5.9
2023-03-29T10:31:01.268Z,5.0
2023-03-29T10:35:08.887Z,5.0
2023-03-29T10:36:05.413Z,5.4
2023-03-29T10:37:01.235Z,5.4
2023-03-29T10:38:05.104Z,5.4
2023-03-29T10:41:05.157Z,5.4
2023-03-29T10:50:04.804Z,5.3
2023-03-29T10:51:02.297Z,5.3
2023-03-29T10:52:00.697Z,5.3
2023-03-29T10:53:02.044Z,5.3
2023-03-29T10:54:02.111Z,5.3
2023-03-29T10:55:00.831Z,5.3
2023-03-29T10:56:17.248Z,4.7
2023-03-29T10:57:05.660Z,4.7
2023-03-29T10:58:15.594Z,4.7
2023-03-29T10:59:20.528Z,4.7
2023-03-29T11:00:10.007Z,4.7
2023-03-29T11:01:01.726Z,5.2
2023-03-29T11:02:01.823Z,5.2
2023-03-29T11:03:18.791Z,5.2
2023-03-29T11:04:20.530Z,5.2
2023-03-29T11:05:13.857Z,5.2
2023-03-29T11:06:15.948Z,4.9
2023-03-29T11:07:19.677Z,4.9
2023-03-29T11:08:13.850Z,4.9
2023-03-29T11:09:05.882Z,4.9
2023-03-29T11:10:10.033Z,4.9
2023-03-29T11:11:11.605Z,5.7
2023-03-29T11:12:15.941Z,5.7
2023-03-29T11:13:10.590Z,5.7
2023-03-29T11:14:13.163Z,5.7
2023-03-29T11:15:20.536Z,5.7
2023-03-29T11:16:17.172Z,5.2
2023-03-29T11:17:10.556Z,5.2
2023-03-29T11:18:20.539Z,5.2
2023-03-29T11:19:17.787Z,5.2
2023-03-29T11:20:09.149Z,5.2
2023-03-29T11:21:17.954Z,5.0
2023-03-29T11:22:08.709Z,5.0
2023-03-29T11:23:11.350Z,5.0
2023-03-29T11:24:20.537Z,5.0
2023-03-29T11:25:01.604Z,5.0
2023-03-29T11:26:15.127Z,5.3
2023-03-29T11:27:18.430Z,5.3
2023-03-29T11:28:17.053Z,5.3
2023-03-29T11:29:03.835Z,5.3
2023-03-29T11:30:07.733Z,5.3
2023-03-29T11:31:08.785Z,5.2
2023-03-29T11:32:09.485Z,5.2
2023-03-29T11:33:10.527Z,5.2
2023-03-29T11:34:18.517Z,5.2
2023-03-29T11:35:20.469Z,5.2
2023-03-29T11:36:15.422Z,4.8
2023-03-29T11:37:09.716Z,4.8
2023-03-29T11:38:20.421Z,4.8
2023-03-29T11:39:11.723Z,4.8
2023-03-29T11:40:11.535Z,4.8
2023-03-29T11:41:09.157Z,5.2
2023-03-29T11:42:08.106Z,5.2
2023-03-29T11:43:04.872Z,5.2
2023-03-29T11:44:08.873Z,5.2
2023-03-29T11:45:02.534Z,5.2
2023-03-29T11:46:10.634Z,5.4
2023-03-29T11:47:06.457Z,5.4
2023-03-29T11:48:06.147Z,5.4
2023-03-29T11:49:18.868Z,5.4
2023-03-29T11:50:19.579Z,5.4
2023-03-29T11:51:14.061Z,5.8
2023-03-29T11:52:11.485Z,5.8
2023-03-29T11:53:07.983Z,5.8
2023-03-29T11:54:11.450Z,5.8
2023-03-29T11:55:07.229Z,5.8
2023-03-29T11:56:08.196Z,5.3
2023-03-29T11:57:09.053Z,5.3
2023-03-29T11:58:20.302Z,5.3
2023-03-29T11:59:10.238Z,5.3
2023-03-29T12:00:05.782Z,5.3
2023-03-29T12:01:04.496Z,5.7
2023-03-29T12:02:15.626Z,5.7
2023-03-29T12:03:13.484Z,5.7
2023-03-29T12:04:09.891Z,5.7
2023-03-29T12:05:10.421Z,5.7
2023-03-29T12:06:07.229Z,6.0
2023-03-29T12:07:13.364Z,6.0
2023-03-29T12:08:20.434Z,6.0
2023-03-29T12:09:06.740Z,6.0
2023-03-29T12:10:07.098Z,6.0
2023-03-29T12:11:11.458Z,5.1
2023-03-29T12:12:06.858Z,5.1
2023-03-29T12:13:05.845Z,5.1
2023-03-29T12:14:10.680Z,5.1
2023-03-29T12:15:08.641Z,5.1
2023-03-29T12:16:20.422Z,5.3
2023-03-29T12:17:05.568Z,5.3
2023-03-29T12:18:09.018Z,5.3
2023-03-29T12:19:05.792Z,5.3
2023-03-29T12:20:05.604Z,5.3
2023-03-29T12:21:05.871Z,5.2
2023-03-29T12:22:01.018Z,5.2
2023-03-29T12:23:01.344Z,5.2
2023-03-29T12:24:00.558Z,5.2
2023-03-29T12:25:03.842Z,5.2
2023-03-29T12:26:10.457Z,5.4
2023-03-29T12:27:17.885Z,5.4
2023-03-29T12:28:17.525Z,5.4
2023-03-29T12:29:10.073Z,5.4
2023-03-29T12:30:11.477Z,5.4
2023-03-29T12:31:10.453Z,5.4
2023-03-29T12:32:10.580Z,5.4
2023-03-29T12:33:20.149Z,5.4
2023-03-29T12:34:14.062Z,5.4
2023-03-29T12:35:20.396Z,5.4
2023-03-29T12:36:10.485Z,5.6
2023-03-29T12:37:06.166Z,5.6
2023-03-29T12:38:11.518Z,5.6
2023-03-29T12:39:00.619Z,5.6
2023-03-29T12:40:09.570Z,5.6
2023-03-29T12:41:10.240Z,5.5
2023-03-29T12:42:11.159Z,5.5
2023-03-29T12:45:00.630Z,5.5
2023-03-29T12:46:06.933Z,5.4
2023-03-29T12:47:01.184Z,5.4
2023-03-29T12:50:00.940Z,5.4
2023-03-29T12:51:03.648Z,5.2
2023-03-29T12:52:05.399Z,5.2
2023-03-29T12:53:02.557Z,5.2
2023-03-29T12:54:02.535Z,5.2
2023-03-29T12:55:11.895Z,5.2
2023-03-29T12:56:01.778Z,5.1
2023-03-29T12:58:04.097Z,5.1
2023-03-29T12:59:15.096Z,5.1
2023-03-29T13:00:18.049Z,5.1
2023-03-29T13:01:06.129Z,5.0
2023-03-29T13:02:11.510Z,5.0
2023-03-29T13:03:03.229Z,5.0
2023-03-29T13:04:00.490Z,5.0
2023-03-29T13:07:01.482Z,5.4
2023-03-29T13:09:12.139Z,5.4
2023-03-29T13:10:07.088Z,5.4
2023-03-29T13:11:01.261Z,5.0
2023-03-29T13:12:10.541Z,5.0
2023-03-29T13:13:10.850Z,5.0
2023-03-29T13:14:04.574Z,5.0
2023-03-29T13:15:06.306Z,5.0
2023-03-29T13:16:11.732Z,4.9
2023-03-29T13:17:17.917Z,4.9
2023-03-29T13:18:20.451Z,4.9
2023-03-29T13:19:18.604Z,4.9
2023-03-29T13:20:20.426Z,4.9
2023-03-29T13:21:16.552Z,5.3
2023-03-29T13:22:08.299Z,5.3
2023-03-29T13:23:10.467Z,5.3
2023-03-29T13:24:09.749Z,5.3
2023-03-29T13:25:09.967Z,5.3
2023-03-29T13:26:20.412Z,5.6
2023-03-29T13:27:04.672Z,5.6
2023-03-29T13:28:12.466Z,5.6
2023-03-29T13:29:15.997Z,5.6
2023-03-29T13:30:10.545Z,5.6
2023-03-29T13:31:16.672Z,5.0
2023-03-29T13:32:13.724Z,5.0
2023-03-29T13:33:16.540Z,5.0
2023-03-29T13:34:15.242Z,5.0
2023-03-29T13:35:11.544Z,5.0
2023-03-29T13:36:06.764Z,5.7
2023-03-29T13:37:00.487Z,5.7
2023-03-29T13:38:16.681Z,5.7
2023-03-29T13:39:03.761Z,5.7
2023-03-29T13:40:00.560Z,5.7
2023-03-29T13:41:04.278Z,5.5
2023-03-29T13:42:20.424Z,5.5
2023-03-29T13:43:08.368Z,5.5
2023-03-29T13:44:00.552Z,5.5
2023-03-29T13:45:20.419Z,5.5
2023-03-29T13:46:00.636Z,5.6
2023-03-29T13:47:03.407Z,5.6
2023-03-29T13:48:13.438Z,5.6
2023-03-29T13:49:13.042Z,5.6
2023-03-29T13:50:09.274Z,5.6
2023-03-29T13:51:03.289Z,5.7
2023-03-29T13:52:09.780Z,5.7
2023-03-29T13:53:05.287Z,5.7
2023-03-29T13:54:09.995Z,5.7
2023-03-29T13:55:05.884Z,5.7
2023-03-29T13:56:00.842Z,8.1
2023-03-29T13:57:14.663Z,8.1
2023-03-29T13:58:10.153Z,8.1
2023-03-29T13:59:18.884Z,8.1
2023-03-29T14:00:05.603Z,8.1